sensor_id;sensor_type;location;lat;lon;timestamp;P1;durP1;ratioP1;P2;durP2;ratioP2
27802;SDS011;15182;48.174;11.562;2023-07-22T00:01:01;2.10;;;2.00;;
27802;SDS011;15182;48.174;11.562;2023-07-22T00:03:28;1.98;;;1.98;;
27802;SDS011;15182;48.174;11.562;2023-07-22T00:06:03;1.98;;;1.98;;
27802;SDS011;15182;48.174;11.562;2023-07-22T00:08:32;2.13;;;2.10;;
27802;SDS011;15182;48.174;11.562;2023-07-22T00:11:00;2.15;;;2.15;;
27802;SDS011;15182;48.174;11.562;2023-07-22T00:13:29;2.35;;;2.33;;
27802;SDS011;15182;48.174;11.562;2023-07-22T00:15:57;2.13;;;2.03;;
27802;SDS011;15182;48.174;11.562;2023-07-22T00:22:02;2.35;;;2.20;;
27802;SDS011;15182;48.174;11.562;2023-07-22T00:24:30;2.40;;;2.20;;
27802;SDS011;15182;48.174;11.562;2023-07-22T00:26:58;2.47;;;2.45;;
27802;SDS011;15182;48.174;11.562;2023-07-22T00:29:26;2.40;;;2.25;;
27802;SDS011;15182;48.174;11.562;2023-07-22T00:31:53;2.08;;;2.08;;
27802;SDS011;15182;48.174;11.562;2023-07-22T00:34:23;3.80;;;2.30;;
27802;SDS011;15182;48.174;11.562;2023-07-22T00:36:50;2.58;;;2.38;;
27802;SDS011;15182;48.174;11.562;2023-07-22T00:46:31;2.40;;;2.35;;
27802;SDS011;15182;48.174;11.562;2023-07-22T00:48:59;2.28;;;2.28;;
27802;SDS011;15182;48.174;11.562;2023-07-22T00:51:28;2.78;;;2.67;;
27802;SDS011;15182;48.174;11.562;2023-07-22T00:53:56;2.40;;;2.40;;
27802;SDS011;15182;48.174;11.562;2023-07-22T00:56:25;2.60;;;2.30;;
27802;SDS011;15182;48.174;11.562;2023-07-22T00:58:53;2.55;;;2.45;;
27802;SDS011;15182;48.174;11.562;2023-07-22T01:01:21;2.60;;;2.50;;
27802;SDS011;15182;48.174;11.562;2023-07-22T01:03:48;2.58;;;2.30;;
27802;SDS011;15182;48.174;11.562;2023-07-22T01:06:16;2.50;;;2.40;;
27802;SDS011;15182;48.174;11.562;2023-07-22T01:08:47;2.92;;;2.78;;
27802;SDS011;15182;48.174;11.562;2023-07-22T01:11:15;2.35;;;2.25;;
27802;SDS011;15182;48.174;11.562;2023-07-22T01:13:43;2.50;;;2.50;;
27802;SDS011;15182;48.174;11.562;2023-07-22T01:16:11;2.40;;;2.33;;
27802;SDS011;15182;48.174;11.562;2023-07-22T01:18:39;2.30;;;2.30;;
27802;SDS011;15182;48.174;11.562;2023-07-22T01:21:07;3.25;;;2.20;;
27802;SDS011;15182;48.174;11.562;2023-07-22T01:23:38;2.70;;;2.60;;
27802;SDS011;15182;48.174;11.562;2023-07-22T01:26:06;2.42;;;2.28;;
27802;SDS011;15182;48.174;11.562;2023-07-22T01:28:34;2.10;;;2.10;;
27802;SDS011;15182;48.174;11.562;2023-07-22T01:31:02;2.33;;;2.30;;
27802;SDS011;15182;48.174;11.562;2023-07-22T01:33:31;1.98;;;1.98;;
27802;SDS011;15182;48.174;11.562;2023-07-22T01:35:59;2.63;;;2.53;;
27802;SDS011;15182;48.174;11.562;2023-07-22T01:38:28;2.42;;;2.33;;
27802;SDS011;15182;48.174;11.562;2023-07-22T01:40:58;2.15;;;2.15;;
27802;SDS011;15182;48.174;11.562;2023-07-22T01:43:26;2.10;;;2.10;;
27802;SDS011;15182;48.174;11.562;2023-07-22T01:45:54;2.40;;;2.33;;
27802;SDS011;15182;48.174;11.562;2023-07-22T01:48:21;2.83;;;2.63;;
27802;SDS011;15182;48.174;11.562;2023-07-22T01:50:49;2.80;;;2.75;;
27802;SDS011;15182;48.174;11.562;2023-07-22T01:53:17;2.53;;;2.38;;
27802;SDS011;15182;48.174;11.562;2023-07-22T01:55:45;2.72;;;2.53;;
27802;SDS011;15182;48.174;11.562;2023-07-22T01:58:14;2.75;;;2.58;;
27802;SDS011;15182;48.174;11.562;2023-07-22T02:00:42;2.30;;;2.30;;
27802;SDS011;15182;48.174;11.562;2023-07-22T02:03:10;2.65;;;2.55;;
27802;SDS011;15182;48.174;11.562;2023-07-22T02:05:38;2.53;;;2.42;;
27802;SDS011;15182;48.174;11.562;2023-07-22T02:08:09;3.55;;;2.15;;
27802;SDS011;15182;48.174;11.562;2023-07-22T02:10:37;2.17;;;2.08;;
27802;SDS011;15182;48.174;11.562;2023-07-22T02:13:04;2.53;;;2.42;;
27802;SDS011;15182;48.174;11.562;2023-07-22T02:15:34;2.22;;;2.22;;
27802;SDS011;15182;48.174;11.562;2023-07-22T02:18:02;2.88;;;2.67;;
27802;SDS011;15182;48.174;11.562;2023-07-22T02:20:31;2.30;;;2.20;;
27802;SDS011;15182;48.174;11.562;2023-07-22T02:22:58;2.60;;;2.50;;
27802;SDS011;15182;48.174;11.562;2023-07-22T02:25:26;2.08;;;2.08;;
27802;SDS011;15182;48.174;11.562;2023-07-22T02:27:54;2.60;;;2.60;;
27802;SDS011;15182;48.174;11.562;2023-07-22T02:30:22;2.40;;;2.40;;
27802;SDS011;15182;48.174;11.562;2023-07-22T02:32:51;2.65;;;2.30;;
27802;SDS011;15182;48.174;11.562;2023-07-22T02:35:19;2.38;;;2.38;;
27802;SDS011;15182;48.174;11.562;2023-07-22T02:37:47;2.17;;;2.10;;
27802;SDS011;15182;48.174;11.562;2023-07-22T02:40:14;2.97;;;2.75;;
27802;SDS011;15182;48.174;11.562;2023-07-22T02:42:42;2.95;;;2.85;;
27802;SDS011;15182;48.174;11.562;2023-07-22T02:45:10;2.67;;;2.58;;
27802;SDS011;15182;48.174;11.562;2023-07-22T02:47:38;2.40;;;2.30;;
27802;SDS011;15182;48.174;11.562;2023-07-22T02:50:08;2.45;;;2.33;;
27802;SDS011;15182;48.174;11.562;2023-07-22T02:52:36;3.13;;;3.03;;
27802;SDS011;15182;48.174;11.562;2023-07-22T02:55:05;2.80;;;2.70;;
27802;SDS011;15182;48.174;11.562;2023-07-22T02:57:37;2.38;;;2.28;;
27802;SDS011;15182;48.174;11.562;2023-07-22T03:00:06;2.13;;;2.13;;
27802;SDS011;15182;48.174;11.562;2023-07-22T03:02:37;2.85;;;2.75;;
27802;SDS011;15182;48.174;11.562;2023-07-22T03:05:06;2.67;;;2.58;;
27802;SDS011;15182;48.174;11.562;2023-07-22T03:07:37;2.60;;;2.50;;
27802;SDS011;15182;48.174;11.562;2023-07-22T03:10:06;2.40;;;2.30;;
27802;SDS011;15182;48.174;11.562;2023-07-22T03:12:35;2.67;;;2.55;;
27802;SDS011;15182;48.174;11.562;2023-07-22T03:19:11;2.55;;;2.45;;
27802;SDS011;15182;48.174;11.562;2023-07-22T03:21:40;2.72;;;2.63;;
27802;SDS011;15182;48.174;11.562;2023-07-22T03:24:08;3.00;;;2.90;;
27802;SDS011;15182;48.174;11.562;2023-07-22T03:26:36;3.05;;;2.95;;
27802;SDS011;15182;48.174;11.562;2023-07-22T03:29:04;2.72;;;2.63;;
27802;SDS011;15182;48.174;11.562;2023-07-22T03:31:32;2.47;;;2.47;;
27802;SDS011;15182;48.174;11.562;2023-07-22T03:34:00;2.47;;;2.47;;
27802;SDS011;15182;48.174;11.562;2023-07-22T03:36:27;2.67;;;2.60;;
27802;SDS011;15182;48.174;11.562;2023-07-22T03:38:56;2.70;;;2.60;;
27802;SDS011;15182;48.174;11.562;2023-07-22T03:41:24;3.42;;;2.67;;
27802;SDS011;15182;48.174;11.562;2023-07-22T03:43:52;2.42;;;2.38;;
27802;SDS011;15182;48.174;11.562;2023-07-22T03:46:20;3.13;;;3.03;;
27802;SDS011;15182;48.174;11.562;2023-07-22T03:48:48;3.97;;;2.97;;
27802;SDS011;15182;48.174;11.562;2023-07-22T03:51:16;2.72;;;2.63;;
27802;SDS011;15182;48.174;11.562;2023-07-22T03:53:44;2.85;;;2.75;;
27802;SDS011;15182;48.174;11.562;2023-07-22T03:56:13;2.75;;;2.75;;
27802;SDS011;15182;48.174;11.562;2023-07-22T03:58:41;2.67;;;2.67;;
27802;SDS011;15182;48.174;11.562;2023-07-22T04:01:10;3.10;;;2.90;;
27802;SDS011;15182;48.174;11.562;2023-07-22T04:03:38;2.28;;;2.28;;
27802;SDS011;15182;48.174;11.562;2023-07-22T04:06:06;2.65;;;2.55;;
27802;SDS011;15182;48.174;11.562;2023-07-22T04:08:34;2.90;;;2.80;;
27802;SDS011;15182;48.174;11.562;2023-07-22T04:11:02;2.63;;;2.53;;
27802;SDS011;15182;48.174;11.562;2023-07-22T04:13:31;2.72;;;2.70;;
27802;SDS011;15182;48.174;11.562;2023-07-22T04:15:59;2.88;;;2.88;;
27802;SDS011;15182;48.174;11.562;2023-07-22T04:18:28;3.10;;;2.90;;
27802;SDS011;15182;48.174;11.562;2023-07-22T04:21:00;2.63;;;2.53;;
27802;SDS011;15182;48.174;11.562;2023-07-22T04:23:28;2.92;;;2.75;;
27802;SDS011;15182;48.174;11.562;2023-07-22T04:25:57;3.08;;;2.97;;
27802;SDS011;15182;48.174;11.562;2023-07-22T04:28:25;2.88;;;2.78;;
27802;SDS011;15182;48.174;11.562;2023-07-22T04:30:58;3.10;;;2.85;;
27802;SDS011;15182;48.174;11.562;2023-07-22T04:33:26;3.05;;;2.72;;
27802;SDS011;15182;48.174;11.562;2023-07-22T04:35:55;2.92;;;2.83;;
27802;SDS011;15182;48.174;11.562;2023-07-22T04:38:25;2.90;;;2.70;;
27802;SDS011;15182;48.174;11.562;2023-07-22T04:40:53;3.08;;;2.95;;
27802;SDS011;15182;48.174;11.562;2023-07-22T04:43:21;2.70;;;2.60;;
27802;SDS011;15182;48.174;11.562;2023-07-22T04:45:50;2.60;;;2.60;;
27802;SDS011;15182;48.174;11.562;2023-07-22T04:48:19;3.03;;;2.92;;
27802;SDS011;15182;48.174;11.562;2023-07-22T04:50:49;2.95;;;2.85;;
27802;SDS011;15182;48.174;11.562;2023-07-22T04:53:17;2.85;;;2.85;;
27802;SDS011;15182;48.174;11.562;2023-07-22T04:55:45;2.85;;;2.83;;
27802;SDS011;15182;48.174;11.562;2023-07-22T04:58:13;2.90;;;2.80;;
27802;SDS011;15182;48.174;11.562;2023-07-22T05:00:41;2.40;;;2.40;;
27802;SDS011;15182;48.174;11.562;2023-07-22T05:03:09;2.80;;;2.70;;
27802;SDS011;15182;48.174;11.562;2023-07-22T05:05:38;2.72;;;2.63;;
27802;SDS011;15182;48.174;11.562;2023-07-22T05:08:06;2.97;;;2.88;;
27802;SDS011;15182;48.174;11.562;2023-07-22T05:10:34;2.53;;;2.50;;
27802;SDS011;15182;48.174;11.562;2023-07-22T05:13:03;2.80;;;2.70;;
27802;SDS011;15182;48.174;11.562;2023-07-22T05:15:31;2.75;;;2.70;;
27802;SDS011;15182;48.174;11.562;2023-07-22T05:17:58;2.65;;;2.55;;
27802;SDS011;15182;48.174;11.562;2023-07-22T05:20:26;2.42;;;2.42;;
27802;SDS011;15182;48.174;11.562;2023-07-22T05:22:56;2.58;;;2.47;;
27802;SDS011;15182;48.174;11.562;2023-07-22T05:25:24;2.38;;;2.28;;
27802;SDS011;15182;48.174;11.562;2023-07-22T05:27:52;2.70;;;2.60;;
27802;SDS011;15182;48.174;11.562;2023-07-22T05:30:20;3.15;;;2.75;;
27802;SDS011;15182;48.174;11.562;2023-07-22T05:32:48;2.75;;;2.55;;
27802;SDS011;15182;48.174;11.562;2023-07-22T05:35:19;2.80;;;2.70;;
27802;SDS011;15182;48.174;11.562;2023-07-22T05:37:47;3.10;;;2.50;;
27802;SDS011;15182;48.174;11.562;2023-07-22T05:40:16;2.50;;;2.50;;
27802;SDS011;15182;48.174;11.562;2023-07-22T05:42:44;2.70;;;2.50;;
27802;SDS011;15182;48.174;11.562;2023-07-22T05:45:12;2.92;;;2.72;;
27802;SDS011;15182;48.174;11.562;2023-07-22T05:47:41;2.55;;;2.55;;
27802;SDS011;15182;48.174;11.562;2023-07-22T05:50:09;2.65;;;2.55;;
27802;SDS011;15182;48.174;11.562;2023-07-22T05:52:37;2.40;;;2.30;;
27802;SDS011;15182;48.174;11.562;2023-07-22T05:55:05;3.10;;;2.50;;
27802;SDS011;15182;48.174;11.562;2023-07-22T05:57:34;2.10;;;2.10;;
27802;SDS011;15182;48.174;11.562;2023-07-22T06:00:02;2.47;;;2.40;;
27802;SDS011;15182;48.174;11.562;2023-07-22T06:02:38;2.40;;;2.30;;
27802;SDS011;15182;48.174;11.562;2023-07-22T06:05:06;2.50;;;2.47;;
27802;SDS011;15182;48.174;11.562;2023-07-22T06:07:34;2.25;;;2.15;;
27802;SDS011;15182;48.174;11.562;2023-07-22T06:10:02;2.65;;;2.45;;
27802;SDS011;15182;48.174;11.562;2023-07-22T06:12:31;2.53;;;2.42;;
27802;SDS011;15182;48.174;11.562;2023-07-22T06:15:00;2.25;;;2.25;;
27802;SDS011;15182;48.174;11.562;2023-07-22T06:17:28;2.80;;;2.53;;
27802;SDS011;15182;48.174;11.562;2023-07-22T06:19:56;2.55;;;2.45;;
27802;SDS011;15182;48.174;11.562;2023-07-22T06:22:24;2.40;;;2.30;;
27802;SDS011;15182;48.174;11.562;2023-07-22T06:24:52;2.13;;;2.13;;
27802;SDS011;15182;48.174;11.562;2023-07-22T06:27:19;2.53;;;2.30;;
27802;SDS011;15182;48.174;11.562;2023-07-22T06:29:47;2.35;;;2.30;;
27802;SDS011;15182;48.174;11.562;2023-07-22T06:32:16;2.63;;;2.60;;
27802;SDS011;15182;48.174;11.562;2023-07-22T06:34:44;3.33;;;2.20;;
27802;SDS011;15182;48.174;11.562;2023-07-22T06:37:12;2.28;;;2.20;;
27802;SDS011;15182;48.174;11.562;2023-07-22T06:39:40;2.40;;;2.30;;
27802;SDS011;15182;48.174;11.562;2023-07-22T06:42:08;2.85;;;2.75;;
27802;SDS011;15182;48.174;11.562;2023-07-22T06:44:35;2.28;;;2.17;;
27802;SDS011;15182;48.174;11.562;2023-07-22T06:47:03;2.35;;;2.25;;
27802;SDS011;15182;48.174;11.562;2023-07-22T06:49:33;2.10;;;2.10;;
27802;SDS011;15182;48.174;11.562;2023-07-22T06:52:01;2.28;;;2.17;;
27802;SDS011;15182;48.174;11.562;2023-07-22T06:54:29;2.33;;;2.22;;
27802;SDS011;15182;48.174;11.562;2023-07-22T06:56:56;2.47;;;2.38;;
27802;SDS011;15182;48.174;11.562;2023-07-22T06:59:24;1.98;;;1.98;;
27802;SDS011;15182;48.174;11.562;2023-07-22T07:01:52;2.05;;;1.95;;
27802;SDS011;15182;48.174;11.562;2023-07-22T07:04:20;2.25;;;2.08;;
27802;SDS011;15182;48.174;11.562;2023-07-22T07:06:50;6.38;;;2.20;;
27802;SDS011;15182;48.174;11.562;2023-07-22T07:09:17;3.17;;;2.15;;
27802;SDS011;15182;48.174;11.562;2023-07-22T07:11:45;1.88;;;1.88;;
27802;SDS011;15182;48.174;11.562;2023-07-22T07:14:13;1.83;;;1.83;;
27802;SDS011;15182;48.174;11.562;2023-07-22T07:16:41;2.20;;;2.10;;
27802;SDS011;15182;48.174;11.562;2023-07-22T07:19:08;2.30;;;2.20;;
27802;SDS011;15182;48.174;11.562;2023-07-22T07:21:36;1.98;;;1.98;;
27802;SDS011;15182;48.174;11.562;2023-07-22T07:24:07;2.22;;;2.00;;
27802;SDS011;15182;48.174;11.562;2023-07-22T07:26:35;2.20;;;2.20;;
27802;SDS011;15182;48.174;11.562;2023-07-22T07:29:02;1.80;;;1.80;;
27802;SDS011;15182;48.174;11.562;2023-07-22T07:31:30;3.50;;;1.77;;
27802;SDS011;15182;48.174;11.562;2023-07-22T07:33:58;1.90;;;1.90;;
27802;SDS011;15182;48.174;11.562;2023-07-22T07:36:26;2.03;;;1.95;;
27802;SDS011;15182;48.174;11.562;2023-07-22T07:38:54;2.05;;;1.95;;
27802;SDS011;15182;48.174;11.562;2023-07-22T07:41:23;2.00;;;1.88;;
27802;SDS011;15182;48.174;11.562;2023-07-22T07:43:50;1.92;;;1.92;;
27802;SDS011;15182;48.174;11.562;2023-07-22T07:46:19;2.00;;;2.00;;
27802;SDS011;15182;48.174;11.562;2023-07-22T07:48:49;2.17;;;2.10;;
27802;SDS011;15182;48.174;11.562;2023-07-22T07:51:18;2.00;;;2.00;;
27802;SDS011;15182;48.174;11.562;2023-07-22T07:53:48;1.92;;;1.92;;
27802;SDS011;15182;48.174;11.562;2023-07-22T07:56:17;2.22;;;2.22;;
27802;SDS011;15182;48.174;11.562;2023-07-22T07:58:47;1.90;;;1.90;;
27802;SDS011;15182;48.174;11.562;2023-07-22T08:01:17;1.90;;;1.80;;
27802;SDS011;15182;48.174;11.562;2023-07-22T08:03:45;1.95;;;1.95;;
27802;SDS011;15182;48.174;11.562;2023-07-22T08:06:13;1.80;;;1.80;;
27802;SDS011;15182;48.174;11.562;2023-07-22T08:08:40;1.90;;;1.90;;
27802;SDS011;15182;48.174;11.562;2023-07-22T08:11:09;2.10;;;2.10;;
27802;SDS011;15182;48.174;11.562;2023-07-22T08:13:40;2.40;;;2.30;;
27802;SDS011;15182;48.174;11.562;2023-07-22T08:16:11;2.47;;;1.88;;
27802;SDS011;15182;48.174;11.562;2023-07-22T08:18:40;3.42;;;1.83;;
27802;SDS011;15182;48.174;11.562;2023-07-22T08:21:08;1.88;;;1.88;;
27802;SDS011;15182;48.174;11.562;2023-07-22T08:23:36;2.00;;;2.00;;
27802;SDS011;15182;48.174;11.562;2023-07-22T08:26:04;1.85;;;1.85;;
27802;SDS011;15182;48.174;11.562;2023-07-22T08:28:34;3.25;;;1.92;;
27802;SDS011;15182;48.174;11.562;2023-07-22T08:31:02;2.05;;;2.03;;
27802;SDS011;15182;48.174;11.562;2023-07-22T08:33:31;1.88;;;1.77;;
27802;SDS011;15182;48.174;11.562;2023-07-22T08:35:59;1.80;;;1.80;;
27802;SDS011;15182;48.174;11.562;2023-07-22T08:38:28;2.10;;;2.10;;
27802;SDS011;15182;48.174;11.562;2023-07-22T08:40:56;1.60;;;1.60;;
27802;SDS011;15182;48.174;11.562;2023-07-22T08:43:24;1.95;;;1.85;;
27802;SDS011;15182;48.174;11.562;2023-07-22T08:45:54;1.80;;;1.70;;
27802;SDS011;15182;48.174;11.562;2023-07-22T08:48:29;1.65;;;1.65;;
27802;SDS011;15182;48.174;11.562;2023-07-22T08:51:02;1.88;;;1.50;;
27802;SDS011;15182;48.174;11.562;2023-07-22T08:53:34;1.50;;;1.50;;
27802;SDS011;15182;48.174;11.562;2023-07-22T08:56:03;1.58;;;1.50;;
27802;SDS011;15182;48.174;11.562;2023-07-22T08:58:31;1.90;;;1.90;;
27802;SDS011;15182;48.174;11.562;2023-07-22T09:01:02;1.52;;;1.45;;
27802;SDS011;15182;48.174;11.562;2023-07-22T09:03:31;1.65;;;1.60;;
27802;SDS011;15182;48.174;11.562;2023-07-22T09:05:59;1.70;;;1.70;;
27802;SDS011;15182;48.174;11.562;2023-07-22T09:08:28;1.90;;;1.80;;
27802;SDS011;15182;48.174;11.562;2023-07-22T09:10:56;1.98;;;1.88;;
27802;SDS011;15182;48.174;11.562;2023-07-22T09:13:24;1.95;;;1.95;;
27802;SDS011;15182;48.174;11.562;2023-07-22T09:15:53;2.80;;;1.67;;
27802;SDS011;15182;48.174;11.562;2023-07-22T09:18:24;2.05;;;1.60;;
27802;SDS011;15182;48.174;11.562;2023-07-22T09:20:54;1.70;;;1.60;;
27802;SDS011;15182;48.174;11.562;2023-07-22T09:23:31;1.42;;;1.42;;
27802;SDS011;15182;48.174;11.562;2023-07-22T09:26:09;1.40;;;1.40;;
27802;SDS011;15182;48.174;11.562;2023-07-22T09:28:48;1.83;;;1.67;;
27802;SDS011;15182;48.174;11.562;2023-07-22T09:31:18;1.50;;;1.50;;
27802;SDS011;15182;48.174;11.562;2023-07-22T09:33:48;1.52;;;1.42;;
27802;SDS011;15182;48.174;11.562;2023-07-22T09:36:17;1.50;;;1.35;;
27802;SDS011;15182;48.174;11.562;2023-07-22T09:38:45;1.40;;;1.40;;
27802;SDS011;15182;48.174;11.562;2023-07-22T09:41:27;2.22;;;1.90;;
27802;SDS011;15182;48.174;11.562;2023-07-22T09:44:01;1.60;;;1.60;;
27802;SDS011;15182;48.174;11.562;2023-07-22T09:46:30;1.42;;;1.42;;
27802;SDS011;15182;48.174;11.562;2023-07-22T09:48:59;1.70;;;1.70;;
27802;SDS011;15182;48.174;11.562;2023-07-22T09:51:34;1.70;;;1.70;;
27802;SDS011;15182;48.174;11.562;2023-07-22T09:54:04;1.45;;;1.42;;
27802;SDS011;15182;48.174;11.562;2023-07-22T09:56:43;1.90;;;1.90;;
27802;SDS011;15182;48.174;11.562;2023-07-22T09:59:13;1.60;;;1.50;;
27802;SDS011;15182;48.174;11.562;2023-07-22T10:01:41;1.70;;;1.70;;
27802;SDS011;15182;48.174;11.562;2023-07-22T10:04:11;1.95;;;1.85;;
27802;SDS011;15182;48.174;11.562;2023-07-22T10:06:44;1.60;;;1.60;;
27802;SDS011;15182;48.174;11.562;2023-07-22T10:09:12;1.77;;;1.77;;
27802;SDS011;15182;48.174;11.562;2023-07-22T10:11:41;1.80;;;1.80;;
27802;SDS011;15182;48.174;11.562;2023-07-22T10:14:09;2.20;;;2.20;;
27802;SDS011;15182;48.174;11.562;2023-07-22T10:16:40;2.15;;;1.73;;
27802;SDS011;15182;48.174;11.562;2023-07-22T10:19:08;4.88;;;1.80;;
27802;SDS011;15182;48.174;11.562;2023-07-22T10:21:37;1.50;;;1.50;;
27802;SDS011;15182;48.174;11.562;2023-07-22T10:24:07;1.30;;;1.30;;
27802;SDS011;15182;48.174;11.562;2023-07-22T10:26:36;1.50;;;1.50;;
27802;SDS011;15182;48.174;11.562;2023-07-22T10:29:04;1.60;;;1.50;;
27802;SDS011;15182;48.174;11.562;2023-07-22T10:31:32;2.05;;;1.70;;
27802;SDS011;15182;48.174;11.562;2023-07-22T10:34:01;1.50;;;1.40;;
27802;SDS011;15182;48.174;11.562;2023-07-22T10:36:29;5.43;;;1.70;;
27802;SDS011;15182;48.174;11.562;2023-07-22T10:38:57;1.60;;;1.60;;
27802;SDS011;15182;48.174;11.562;2023-07-22T10:41:28;1.45;;;1.45;;
27802;SDS011;15182;48.174;11.562;2023-07-22T10:43:56;1.67;;;1.65;;
27802;SDS011;15182;48.174;11.562;2023-07-22T10:46:32;1.30;;;1.30;;
27802;SDS011;15182;48.174;11.562;2023-07-22T10:49:09;1.58;;;1.58;;
27802;SDS011;15182;48.174;11.562;2023-07-22T10:51:38;2.60;;;1.90;;
27802;SDS011;15182;48.174;11.562;2023-07-22T10:54:10;1.65;;;1.65;;
27802;SDS011;15182;48.174;11.562;2023-07-22T10:56:42;2.00;;;1.88;;
27802;SDS011;15182;48.174;11.562;2023-07-22T10:59:11;1.77;;;1.77;;
27802;SDS011;15182;48.174;11.562;2023-07-22T11:01:39;1.73;;;1.73;;
27802;SDS011;15182;48.174;11.562;2023-07-22T11:04:13;1.85;;;1.65;;
27802;SDS011;15182;48.174;11.562;2023-07-22T11:06:52;1.88;;;1.88;;
27802;SDS011;15182;48.174;11.562;2023-07-22T11:09:40;3.22;;;1.50;;
27802;SDS011;15182;48.174;11.562;2023-07-22T11:12:13;2.97;;;1.73;;
27802;SDS011;15182;48.174;11.562;2023-07-22T11:14:47;1.50;;;1.50;;
27802;SDS011;15182;48.174;11.562;2023-07-22T11:17:17;1.98;;;1.70;;
27802;SDS011;15182;48.174;11.562;2023-07-22T11:19:50;1.88;;;1.88;;
27802;SDS011;15182;48.174;11.562;2023-07-22T11:22:18;1.70;;;1.70;;
27802;SDS011;15182;48.174;11.562;2023-07-22T11:24:46;1.80;;;1.80;;
27802;SDS011;15182;48.174;11.562;2023-07-22T11:27:15;1.60;;;1.60;;
27802;SDS011;15182;48.174;11.562;2023-07-22T11:29:43;5.60;;;1.98;;
27802;SDS011;15182;48.174;11.562;2023-07-22T11:32:15;1.50;;;1.50;;
27802;SDS011;15182;48.174;11.562;2023-07-22T11:34:43;1.67;;;1.67;;
27802;SDS011;15182;48.174;11.562;2023-07-22T11:37:12;1.50;;;1.50;;
27802;SDS011;15182;48.174;11.562;2023-07-22T11:39:40;1.70;;;1.70;;
27802;SDS011;15182;48.174;11.562;2023-07-22T11:42:09;5.05;;;2.00;;
27802;SDS011;15182;48.174;11.562;2023-07-22T11:44:39;3.22;;;1.63;;
27802;SDS011;15182;48.174;11.562;2023-07-22T11:47:08;1.67;;;1.67;;
27802;SDS011;15182;48.174;11.562;2023-07-22T11:49:36;1.50;;;1.50;;
27802;SDS011;15182;48.174;11.562;2023-07-22T11:52:06;1.60;;;1.60;;
27802;SDS011;15182;48.174;11.562;2023-07-22T11:54:36;1.60;;;1.60;;
27802;SDS011;15182;48.174;11.562;2023-07-22T11:57:09;1.38;;;1.38;;
27802;SDS011;15182;48.174;11.562;2023-07-22T11:59:40;1.70;;;1.70;;
27802;SDS011;15182;48.174;11.562;2023-07-22T12:02:12;1.65;;;1.65;;
27802;SDS011;15182;48.174;11.562;2023-07-22T12:04:42;1.80;;;1.80;;
27802;SDS011;15182;48.174;11.562;2023-07-22T12:07:23;1.65;;;1.65;;
27802;SDS011;15182;48.174;11.562;2023-07-22T12:09:54;1.25;;;1.25;;
27802;SDS011;15182;48.174;11.562;2023-07-22T12:12:31;1.77;;;1.77;;
27802;SDS011;15182;48.174;11.562;2023-07-22T12:15:02;1.73;;;1.63;;
27802;SDS011;15182;48.174;11.562;2023-07-22T12:17:45;1.38;;;1.33;;
27802;SDS011;15182;48.174;11.562;2023-07-22T12:20:15;2.60;;;2.50;;
27802;SDS011;15182;48.174;11.562;2023-07-22T12:22:44;2.42;;;2.40;;
27802;SDS011;15182;48.174;11.562;2023-07-22T12:25:12;2.10;;;2.10;;
27802;SDS011;15182;48.174;11.562;2023-07-22T12:27:40;1.80;;;1.80;;
27802;SDS011;15182;48.174;11.562;2023-07-22T12:30:09;1.70;;;1.70;;
27802;SDS011;15182;48.174;11.562;2023-07-22T12:32:38;2.85;;;1.90;;
27802;SDS011;15182;48.174;11.562;2023-07-22T12:35:06;1.73;;;1.73;;
27802;SDS011;15182;48.174;11.562;2023-07-22T12:37:35;1.73;;;1.73;;
27802;SDS011;15182;48.174;11.562;2023-07-22T12:40:03;1.70;;;1.70;;
27802;SDS011;15182;48.174;11.562;2023-07-22T12:42:33;2.72;;;1.60;;
27802;SDS011;15182;48.174;11.562;2023-07-22T12:45:01;1.60;;;1.60;;
27802;SDS011;15182;48.174;11.562;2023-07-22T12:47:31;1.70;;;1.70;;
27802;SDS011;15182;48.174;11.562;2023-07-22T12:49:59;1.65;;;1.65;;
27802;SDS011;15182;48.174;11.562;2023-07-22T12:52:27;1.70;;;1.70;;
27802;SDS011;15182;48.174;11.562;2023-07-22T12:54:55;2.00;;;1.90;;
27802;SDS011;15182;48.174;11.562;2023-07-22T12:57:23;1.67;;;1.63;;
27802;SDS011;15182;48.174;11.562;2023-07-22T12:59:51;1.73;;;1.73;;
27802;SDS011;15182;48.174;11.562;2023-07-22T13:02:19;1.73;;;1.73;;
27802;SDS011;15182;48.174;11.562;2023-07-22T13:04:48;1.90;;;1.90;;
27802;SDS011;15182;48.174;11.562;2023-07-22T13:07:15;2.15;;;1.83;;
27802;SDS011;15182;48.174;11.562;2023-07-22T13:09:46;1.60;;;1.60;;
27802;SDS011;15182;48.174;11.562;2023-07-22T13:12:37;2.15;;;1.70;;
27802;SDS011;15182;48.174;11.562;2023-07-22T13:15:05;1.83;;;1.73;;
27802;SDS011;15182;48.174;11.562;2023-07-22T13:17:34;1.77;;;1.77;;
27802;SDS011;15182;48.174;11.562;2023-07-22T13:20:03;1.60;;;1.60;;
27802;SDS011;15182;48.174;11.562;2023-07-22T13:22:34;1.85;;;1.85;;
27802;SDS011;15182;48.174;11.562;2023-07-22T13:25:02;1.80;;;1.63;;
27802;SDS011;15182;48.174;11.562;2023-07-22T13:27:31;2.08;;;2.08;;
27802;SDS011;15182;48.174;11.562;2023-07-22T13:30:00;2.90;;;1.70;;
27802;SDS011;15182;48.174;11.562;2023-07-22T13:32:28;1.80;;;1.80;;
27802;SDS011;15182;48.174;11.562;2023-07-22T13:34:55;2.42;;;1.88;;
27802;SDS011;15182;48.174;11.562;2023-07-22T13:37:25;1.80;;;1.70;;
27802;SDS011;15182;48.174;11.562;2023-07-22T13:39:54;1.65;;;1.65;;
27802;SDS011;15182;48.174;11.562;2023-07-22T13:42:23;1.70;;;1.70;;
27802;SDS011;15182;48.174;11.562;2023-07-22T13:44:51;1.80;;;1.80;;
27802;SDS011;15182;48.174;11.562;2023-07-22T13:47:19;1.60;;;1.60;;
27802;SDS011;15182;48.174;11.562;2023-07-22T13:49:47;1.50;;;1.50;;
27802;SDS011;15182;48.174;11.562;2023-07-22T13:52:15;1.65;;;1.65;;
27802;SDS011;15182;48.174;11.562;2023-07-22T13:54:45;1.58;;;1.58;;
27802;SDS011;15182;48.174;11.562;2023-07-22T13:57:13;1.52;;;1.42;;
27802;SDS011;15182;48.174;11.562;2023-07-22T13:59:41;1.98;;;1.90;;
27802;SDS011;15182;48.174;11.562;2023-07-22T14:02:09;1.70;;;1.70;;
27802;SDS011;15182;48.174;11.562;2023-07-22T14:04:37;2.03;;;1.92;;
27802;SDS011;15182;48.174;11.562;2023-07-22T14:07:06;1.95;;;1.88;;
27802;SDS011;15182;48.174;11.562;2023-07-22T14:09:35;1.98;;;1.98;;
27802;SDS011;15182;48.174;11.562;2023-07-22T14:12:06;1.65;;;1.65;;
27802;SDS011;15182;48.174;11.562;2023-07-22T14:14:34;1.58;;;1.58;;
27802;SDS011;15182;48.174;11.562;2023-07-22T14:17:04;1.65;;;1.65;;
27802;SDS011;15182;48.174;11.562;2023-07-22T14:19:33;2.00;;;2.00;;
27802;SDS011;15182;48.174;11.562;2023-07-22T14:22:01;1.88;;;1.88;;
27802;SDS011;15182;48.174;11.562;2023-07-22T14:24:29;1.83;;;1.83;;
27802;SDS011;15182;48.174;11.562;2023-07-22T14:26:57;1.80;;;1.80;;
27802;SDS011;15182;48.174;11.562;2023-07-22T14:29:27;1.95;;;1.80;;
27802;SDS011;15182;48.174;11.562;2023-07-22T14:31:55;2.00;;;2.00;;
27802;SDS011;15182;48.174;11.562;2023-07-22T14:34:24;4.45;;;2.42;;
27802;SDS011;15182;48.174;11.562;2023-07-22T14:36:51;1.70;;;1.70;;
27802;SDS011;15182;48.174;11.562;2023-07-22T14:39:19;2.00;;;1.90;;
27802;SDS011;15182;48.174;11.562;2023-07-22T14:41:47;3.28;;;1.85;;
27802;SDS011;15182;48.174;11.562;2023-07-22T14:44:15;1.73;;;1.73;;
27802;SDS011;15182;48.174;11.562;2023-07-22T14:46:47;1.88;;;1.88;;
27802;SDS011;15182;48.174;11.562;2023-07-22T14:49:15;1.98;;;1.98;;
27802;SDS011;15182;48.174;11.562;2023-07-22T14:51:43;3.80;;;1.75;;
27802;SDS011;15182;48.174;11.562;2023-07-22T14:54:11;2.30;;;2.20;;
27802;SDS011;15182;48.174;11.562;2023-07-22T14:56:39;2.17;;;2.17;;
27802;SDS011;15182;48.174;11.562;2023-07-22T14:59:07;2.38;;;2.15;;